Raritan, IL (61471)

2:54 AM CDT on July 25, 2014 (GMT -0500)
Burgus Computers (KILSTRON1) Elev 680 ft | 40.74 °N, 90.91 °W | Change Station

Current weather conditions updated 5 seconds ago

Clear
Clear
60.3 °F
Feels Like 60.3 °F
N
2.9
Wind Variable Wind from SE
Gusts 4.0 mph

Today is forecast to be nearly the same temperature as yesterday. Rain.

Today
High -- | Low -- °F
--% Chance of Precip.
Yesterday
High -- | Low -- °F
Precip. -- in
5:53 AM 8:25 PM
Waning Crescent, 2% visible
Pressure 30.05 in
Visibility 10.0 miles
Clouds Clear
Dew Point 56 °F
Humidity 86%
Rainfall 0.00 in
Snow Depth Not available.
UV 0.0 out of 12
Pollen 5.40 out of 12
Air Quality Not available.
Flu Activity Not available.
METAR KMQB 250735Z AUTO 14004KT 10SM CLR 13/13 A3005 RMK AO2 T01340129

More Conditions Fewer Conditions

Pressure 30.05 in
Visibility 10.0 miles
Clouds Clear
Dew Point 56 °F
Humidity 86%
Rainfall 0.00 in
Snow Depth Not available.
UV 0.0 out of 12
Pollen 5.40 out of 12
Air Quality Not available.
Flu Activity Not available.
METAR KMQB 250735Z AUTO 14004KT 10SM CLR 13/13 A3005 RMK AO2 T01340129

More Conditions Fewer Conditions

10-Day Weather Forecast

Almanac

Astronomy

Jul. 25, 2014 Rise Set
Actual Time 5:53 AM CDT 8:25 PM CDT
Civil Twilight 5:22 AM CDT 8:56 PM CDT
Nautical Twilight 4:43 AM CDT 9:35 PM CDT
Astronomical Twilight 3:59 AM CDT 10:19 PM CDT
Moon 4:53 AM CDT 7:22 PM CDT
Length of Visible Light 15h 34m
Length of Day
14h 31m
Tomorrow will be 1m 49s shorter.
Waning Crescent, 2% of the Moon is Illuminated
Today
Waning Crescent
Jul 26
New
Aug 3
First Quarter
Aug 10
Full
Aug 17
Last Quarter

Today's Extremes

State Highs State Lows

Community

WunderPhotos

Upload Photos

1,737,273 photos uploaded!

Nearby

Snow Depth

Station Depth Elevation
No new snow has been reported.

Earthquake Activity

City Distance Mag. Time & Date
No recent earthquake activity has been reported nearby.
Minimum magnitude displayed is 2.5.

Coastal Water Temperatures

Place Temperature
No Stations Reporting

Nearby Weather Stations

Station Location Temp. Dew Point Humidity Wind Precip. Elev Updated Type
Burgus Computers, Stronghurst, IL 60.3 °F 56 °F 86% SE  at  2.9 mph 0.00 in / hr 680 ft 2:54 AM CDT Rapid Fire
CPS, Biggsville, IL 63.1 °F 58 °F 84% East  at  3.0 mph 0.00 in / hr 659 ft 12:45 AM CDT Normal
WIU Harry Mussatto Golf Course, Macomb, IL 63.6 °F 57 °F 79% SE  at  5.0 mph 0.00 in / hr 712 ft 2:40 AM CDT Normal
Spirit Hollow GC, Burlington, IA 65.7 °F 43 °F 43% East  at  2.5 mph 0.00 in / hr 650 ft 2:54 AM CDT Rapid Fire
Cameron, Cameron, IL 57.7 °F 56 °F 93% SE  at  2.0 mph 0.00 in / hr 768 ft 2:53 AM CDT Normal
Chem Gro Inc., Adrian, IL 60.1 °F 55 °F 84% SE  at  8.5 mph 0.00 in / hr 705 ft 2:54 AM CDT Rapid Fire
East of Bentley, Carthage, IL 59.2 °F 57 °F 91% SSE  at  3.0 mph 0.00 in / hr 650 ft 2:50 AM CDT Normal

Show More Stations Show Fewer Stations